Richfield, Utah
Current Conditions -  °F | °C
As of 9:35 PM on Tuesday 21 Oct 2014 (Local Time) from KDTA Reporting Station
Clear Clear  
Wind Chill: 51°   Ceiling: Unl
Heat Index: 51°   Visibility: 10mi
Dew Point: 26°   Wind: 8mph
Humidity: 39%   Direction: 10°N
Pressure: 30.05"   Gusts: NA
Location:  38.77°N, 112.08°W
Report Text: KDTA 220335Z AUTO 01007KT 10SM CLR 10/M03 A3005 RMK AO1 T01041032
Loading
Personal Weather Stations






























Interactive Weather Map
Tropical Storm Tracking
New forecast layout! Learn more

10-Day Weather Forecast

Advertisements
Track Severe Weather on mobile